Time;durP1;ratioP1;P1;durP2;ratioP2;P2;SDS_P1;SDS_P2;PMS_P1;PMS_P2;Temp;Humidity;BMP_temperature;BMP_pressure;BME280_temperature;BME280_humidity;BME280_pressure;Samples;Min_cycle;Max_cycle;Signal;HPM_P1;HPM_P2
2024/01/14 00:00:18;;;;;;;27.88;6.20;;;19.20;34.60;;;;;;5127757;27;20171;-48
2024/01/14 00:02:45;;;;;;;32.72;6.40;;;19.00;34.90;;;;;;5126943;27;20072;-48
2024/01/14 00:05:11;;;;;;;32.05;6.15;;;19.00;35.00;;;;;;5126940;27;20075;-47
2024/01/14 00:07:39;;;;;;;24.80;5.53;;;18.90;35.40;;;;;;5125260;27;20152;-48
2024/01/14 00:10:06;;;;;;;26.40;6.13;;;18.80;35.90;;;;;;5127359;27;20071;-52
2024/01/14 00:12:33;;;;;;;20.95;5.47;;;18.70;36.10;;;;;;5125192;27;20107;-55
2024/01/14 00:15:00;;;;;;;20.58;6.00;;;18.50;36.30;;;;;;5127157;27;20760;-49
2024/01/14 00:17:26;;;;;;;23.65;5.93;;;18.30;35.70;;;;;;5127218;27;20131;-47
2024/01/14 00:19:53;;;;;;;16.95;5.95;;;18.20;36.00;;;;;;5127702;27;20072;-48
2024/01/14 00:22:19;;;;;;;21.58;6.13;;;18.20;37.10;;;;;;5125361;27;20223;-48
2024/01/14 00:24:46;;;;;;;24.77;5.30;;;18.10;37.50;;;;;;5126733;27;20082;-45
2024/01/14 00:27:13;;;;;;;30.48;6.95;;;18.00;38.10;;;;;;5107908;27;20088;-45
2024/01/14 00:29:39;;;;;;;24.05;6.03;;;17.90;38.60;;;;;;5125132;27;20100;-46
2024/01/14 00:32:07;;;;;;;27.40;6.70;;;17.90;37.90;;;;;;5127330;27;20113;-46
2024/01/14 00:34:33;;;;;;;23.38;5.47;;;17.70;38.90;;;;;;5127815;27;20560;-50
2024/01/14 00:37:01;;;;;;;31.17;5.90;;;17.60;39.50;;;;;;5125873;27;20075;-49
2024/01/14 00:39:27;;;;;;;17.00;4.40;;;17.50;40.30;;;;;;5123915;27;20075;-48
2024/01/14 00:41:54;;;;;;;14.10;5.05;;;17.30;41.40;;;;;;5126703;27;20414;-47
2024/01/14 00:44:21;;;;;;;22.92;6.13;;;17.20;42.40;;;;;;5127465;27;20075;-44
2024/01/14 00:46:47;;;;;;;19.55;5.32;;;17.00;42.90;;;;;;5125297;27;20500;-46
2024/01/14 00:49:14;;;;;;;16.02;4.70;;;16.90;42.80;;;;;;5127546;27;20448;-49
2024/01/14 00:51:40;;;;;;;16.30;4.78;;;16.80;43.30;;;;;;5125599;27;20581;-50
2024/01/14 00:54:07;;;;;;;18.40;4.88;;;16.70;43.30;;;;;;5127198;27;20567;-48
2024/01/14 00:56:33;;;;;;;24.10;6.10;;;16.70;43.40;;;;;;5124848;27;20158;-47
2024/01/14 00:59:00;;;;;;;22.90;5.70;;;16.60;43.80;;;;;;5124701;27;20171;-50
2024/01/14 01:01:26;;;;;;;24.92;5.38;;;16.50;43.80;;;;;;5127325;27;20083;-50
2024/01/14 01:03:53;;;;;;;35.97;5.88;;;16.30;43.60;;;;;;5126925;27;20103;-50
2024/01/14 01:06:20;;;;;;;22.55;5.80;;;16.30;44.50;;;;;;5125936;27;20488;-49
2024/01/14 01:08:47;;;;;;;30.77;6.90;;;16.20;44.80;;;;;;5106810;27;20090;-48
2024/01/14 01:11:16;;;;;;;32.35;7.75;;;16.10;45.00;;;;;;5124767;27;20095;-45
2024/01/14 01:13:43;;;;;;;30.70;9.05;;;16.00;45.10;;;;;;5125960;27;20080;-51
2024/01/14 01:16:10;;;;;;;44.42;9.65;;;15.90;44.90;;;;;;5105907;27;20496;-51
2024/01/14 01:18:36;;;;;;;34.75;10.25;;;15.80;44.80;;;;;;5105289;27;20080;-47
2024/01/14 01:21:03;;;;;;;29.95;9.85;;;15.70;44.90;;;;;;5106912;27;20550;-52
2024/01/14 01:23:30;;;;;;;36.03;9.77;;;15.70;45.70;;;;;;5105231;27;20090;-47
2024/01/14 01:25:57;;;;;;;43.47;11.20;;;15.60;45.90;;;;;;5107202;27;20082;-53
2024/01/14 01:28:24;;;;;;;48.17;12.85;;;15.50;46.00;;;;;;5104147;27;20076;-53
2024/01/14 01:30:51;;;;;;;42.28;12.10;;;15.50;46.20;;;;;;5108092;27;20120;-51
2024/01/14 01:33:18;;;;;;;39.05;12.50;;;15.40;45.80;;;;;;5123975;27;20104;-49
2024/01/14 01:35:49;;;;;;;45.70;12.52;;;15.30;45.70;;;;;;5122992;27;20075;-50
2024/01/14 01:38:19;;;;;;;58.05;16.35;;;15.20;46.00;;;;;;5090525;27;20708;-48
2024/01/14 01:40:47;;;;;;;46.80;12.80;;;15.10;46.40;;;;;;5105446;27;20079;-49
2024/01/14 01:43:15;;;;;;;45.95;13.02;;;15.00;46.80;;;;;;5087625;27;20453;-49
2024/01/14 01:45:42;;;;;;;57.78;13.93;;;15.00;47.20;;;;;;5106462;27;20088;-46
2024/01/14 01:48:11;;;;;;;55.20;13.45;;;14.90;47.70;;;;;;5106863;27;20086;-52
2024/01/14 01:50:38;;;;;;;65.03;15.73;;;14.90;48.10;;;;;;5106408;27;20441;-49
2024/01/14 01:53:05;;;;;;;66.13;15.23;;;14.80;48.40;;;;;;5103656;27;20080;-49
2024/01/14 01:55:36;;;;;;;64.50;16.13;;;14.70;48.30;;;;;;5091606;27;20086;-51
2024/01/14 01:58:03;;;;;;;61.70;16.10;;;14.70;48.80;;;;;;5104370;27;20110;-47
2024/01/14 02:00:34;;;;;;;61.65;16.75;;;14.60;49.20;;;;;;5103983;27;20072;-49
2024/01/14 02:03:03;;;;;;;60.85;16.50;;;14.60;49.70;;;;;;5106344;27;20075;-45
2024/01/14 02:05:31;;;;;;;52.42;16.85;;;14.50;49.60;;;;;;5107723;27;20072;-48
2024/01/14 02:07:59;;;;;;;62.35;18.52;;;14.40;49.90;;;;;;5107195;27;20148;-50
2024/01/14 02:10:31;;;;;;;67.93;19.85;;;14.30;50.20;;;;;;5122965;27;20082;-50
2024/01/14 02:12:58;;;;;;;67.97;21.27;;;14.20;50.60;;;;;;5125375;27;20107;-45
2024/01/14 02:15:31;;;;;;;68.63;19.25;;;14.20;51.00;;;;;;5104164;27;20095;-48
2024/01/14 02:17:58;;;;;;;64.95;18.85;;;14.10;51.00;;;;;;5102439;28;20086;-51
2024/01/14 02:20:27;;;;;;;77.50;19.95;;;14.10;51.40;;;;;;5105752;27;20175;-53
2024/01/14 02:22:55;;;;;;;55.83;19.42;;;14.10;51.60;;;;;;5103308;27;20513;-46
2024/01/14 02:25:23;;;;;;;79.85;21.10;;;14.00;51.70;;;;;;5105530;28;20079;-49
2024/01/14 02:27:51;;;;;;;87.03;20.90;;;14.00;52.70;;;;;;5088305;28;20084;-49
2024/01/14 02:30:19;;;;;;;80.90;20.67;;;13.90;52.50;;;;;;5122465;27;20529;-50
2024/01/14 02:32:50;;;;;;;84.97;21.92;;;13.80;52.50;;;;;;5106476;28;20516;-50
2024/01/14 02:35:20;;;;;;;65.53;19.90;;;13.80;52.70;;;;;;5105616;28;20087;-49
2024/01/14 02:37:54;;;;;;;61.35;20.15;;;13.80;53.10;;;;;;5107868;28;20086;-47
2024/01/14 02:40:24;;;;;;;74.78;22.17;;;13.60;54.00;;;;;;5087018;28;20217;-50
2024/01/14 02:42:53;;;;;;;80.85;21.88;;;13.60;53.60;;;;;;5105340;28;20122;-48
2024/01/14 02:45:25;;;;;;;80.75;21.73;;;13.60;53.60;;;;;;5123991;28;20545;-49
2024/01/14 02:47:53;;;;;;;73.40;21.60;;;13.60;53.70;;;;;;5127074;27;20064;-47
2024/01/14 02:50:23;;;;;;;85.40;21.70;;;13.60;53.80;;;;;;5109756;27;20529;-51
2024/01/14 02:52:51;;;;;;;94.68;22.27;;;13.60;53.90;;;;;;5091546;27;20473;-47
2024/01/14 02:55:19;;;;;;;83.85;24.88;;;13.40;54.90;;;;;;5093457;27;20080;-48
2024/01/14 02:57:48;;;;;;;79.75;24.98;;;13.30;54.90;;;;;;5111343;27;20513;-49
2024/01/14 03:00:16;;;;;;;87.57;26.02;;;13.30;55.20;;;;;;5107987;27;20361;-45
2024/01/14 03:02:44;;;;;;;90.38;26.00;;;13.30;55.30;;;;;;5128388;27;20167;-55
2024/01/14 03:05:12;;;;;;;92.50;26.58;;;13.20;55.20;;;;;;5110134;27;20162;-47
2024/01/14 03:07:40;;;;;;;114.25;26.60;;;13.20;55.10;;;;;;5108367;27;20166;-49
2024/01/14 03:10:08;;;;;;;102.55;25.30;;;13.20;55.80;;;;;;5108860;27;20080;-54
2024/01/14 03:12:35;;;;;;;92.72;25.45;;;13.20;55.40;;;;;;5109806;27;20111;-48
2024/01/14 03:15:03;;;;;;;83.13;24.52;;;13.10;55.80;;;;;;5107854;27;20080;-45
2024/01/14 03:17:34;;;;;;;94.95;25.45;;;13.00;56.30;;;;;;5107927;27;20074;-53
2024/01/14 03:20:02;;;;;;;93.18;25.10;;;13.00;56.60;;;;;;5109284;27;20152;-51
2024/01/14 03:22:31;;;;;;;100.82;27.30;;;13.00;57.60;;;;;;5108592;27;20180;-50
2024/01/14 03:24:59;;;;;;;106.03;26.83;;;13.00;57.30;;;;;;5109033;27;20076;-57
2024/01/14 03:27:27;;;;;;;98.72;28.17;;;13.00;57.30;;;;;;5107649;27;20071;-50
2024/01/14 03:29:57;;;;;;;93.25;27.27;;;12.90;58.10;;;;;;5110106;27;20082;-48
2024/01/14 03:32:26;;;;;;;93.82;27.80;;;12.80;57.90;;;;;;5106159;27;20194;-50
2024/01/14 03:34:54;;;;;;;107.22;28.77;;;12.80;58.10;;;;;;5110449;27;20572;-48
2024/01/14 03:37:22;;;;;;;102.22;27.85;;;12.80;58.20;;;;;;5108119;27;20076;-46
2024/01/14 03:39:53;;;;;;;103.47;31.73;;;12.80;58.30;;;;;;5107763;27;20071;-50
2024/01/14 03:42:20;;;;;;;113.35;27.63;;;12.80;58.50;;;;;;5109826;27;20068;-51
2024/01/14 03:44:48;;;;;;;93.60;29.58;;;12.70;58.40;;;;;;5127960;27;20433;-49
2024/01/14 03:47:16;;;;;;;94.57;29.00;;;12.80;58.00;;;;;;5108295;27;20083;-47
2024/01/14 03:49:50;;;;;;;108.18;29.83;;;12.70;58.50;;;;;;5126373;27;20094;-48
2024/01/14 03:52:17;;;;;;;95.57;30.80;;;12.70;58.70;;;;;;5128383;27;20536;-47
2024/01/14 03:54:47;;;;;;;108.55;30.95;;;12.80;58.90;;;;;;5129016;27;20072;-48
2024/01/14 03:57:14;;;;;;;111.38;32.00;;;12.70;58.80;;;;;;5127006;27;20573;-49
2024/01/14 03:59:42;;;;;;;106.10;30.58;;;12.60;59.00;;;;;;5107385;27;20079;-50
2024/01/14 04:02:09;;;;;;;126.15;33.67;;;12.60;59.20;;;;;;5108941;27;20541;-46
2024/01/14 04:04:38;;;;;;;113.50;32.40;;;12.60;59.30;;;;;;5108877;27;20099;-50
2024/01/14 04:07:05;;;;;;;127.85;34.15;;;12.60;59.60;;;;;;5108442;27;20075;-48
2024/01/14 04:09:32;;;;;;;122.43;35.72;;;12.60;60.00;;;;;;5108651;27;20072;-47
2024/01/14 04:11:59;;;;;;;95.82;36.28;;;12.70;60.30;;;;;;5108259;27;20126;-47
2024/01/14 04:14:26;;;;;;;144.05;36.60;;;12.70;60.60;;;;;;5108006;27;20169;-49
2024/01/14 04:16:53;;;;;;;131.43;37.63;;;12.60;60.30;;;;;;5107578;27;20549;-48
2024/01/14 04:19:23;;;;;;;145.20;38.70;;;12.60;60.50;;;;;;5126599;27;20441;-50
2024/01/14 04:21:50;;;;;;;143.38;39.13;;;12.60;61.00;;;;;;5125391;27;20533;-50
2024/01/14 04:24:17;;;;;;;114.70;37.75;;;12.60;61.20;;;;;;5106844;27;20489;-47
2024/01/14 04:26:43;;;;;;;136.88;37.97;;;12.50;61.00;;;;;;5108531;27;20533;-48
2024/01/14 04:29:14;;;;;;;114.25;38.20;;;12.40;61.20;;;;;;5123421;27;20080;-47
2024/01/14 04:31:41;;;;;;;127.60;38.28;;;12.40;61.00;;;;;;5105544;27;20805;-50
2024/01/14 04:34:08;;;;;;;138.73;37.38;;;12.40;61.50;;;;;;5103189;27;20125;-50
2024/01/14 04:36:35;;;;;;;139.35;39.08;;;12.40;61.20;;;;;;5107367;27;20075;-48
2024/01/14 04:39:02;;;;;;;133.00;39.22;;;12.40;61.10;;;;;;5108333;27;20107;-46
2024/01/14 04:41:30;;;;;;;166.27;40.63;;;12.40;61.20;;;;;;5109581;27;20537;-46
2024/01/14 04:43:58;;;;;;;129.18;41.13;;;12.30;62.70;;;;;;5107558;27;20534;-45
2024/01/14 04:46:26;;;;;;;125.75;42.28;;;12.30;62.60;;;;;;5108160;27;20083;-50
2024/01/14 04:48:53;;;;;;;145.35;48.42;;;12.20;63.10;;;;;;5108676;27;20068;-47
2024/01/14 04:51:20;;;;;;;165.90;53.20;;;12.20;62.40;;;;;;5103718;28;20124;-51
2024/01/14 04:53:47;;;;;;;169.45;52.90;;;12.20;62.40;;;;;;5103517;28;20113;-48
2024/01/14 04:56:14;;;;;;;153.32;55.88;;;12.20;62.50;;;;;;5106532;27;20434;-47
2024/01/14 04:58:41;;;;;;;179.90;66.82;;;12.20;62.70;;;;;;5104099;28;20082;-51
2024/01/14 05:01:08;;;;;;;170.52;68.18;;;12.10;62.70;;;;;;5104806;28;20073;-47
2024/01/14 05:03:35;;;;;;;194.50;73.03;;;12.00;62.50;;;;;;5103797;28;20069;-48
2024/01/14 05:06:02;;;;;;;208.27;75.82;;;12.10;63.10;;;;;;5103125;28;20068;-48
2024/01/14 05:08:29;;;;;;;179.05;72.57;;;12.10;63.40;;;;;;5100964;28;20080;-51
2024/01/14 05:10:58;;;;;;;182.95;75.32;;;12.10;63.20;;;;;;5101772;28;20076;-49
2024/01/14 05:13:27;;;;;;;217.75;85.63;;;12.10;63.50;;;;;;5086604;28;20088;-47
2024/01/14 05:15:54;;;;;;;247.43;94.47;;;12.00;63.70;;;;;;5072106;28;20602;-47
2024/01/14 05:18:21;;;;;;;214.63;87.28;;;11.90;63.60;;;;;;5105431;28;20095;-48
2024/01/14 05:20:49;;;;;;;192.07;86.60;;;11.90;63.50;;;;;;5104680;28;20415;-45
2024/01/14 05:23:16;;;;;;;219.85;92.93;;;12.00;63.10;;;;;;5102066;28;20129;-44
2024/01/14 05:25:44;;;;;;;213.48;91.50;;;11.90;63.20;;;;;;5106686;28;20060;-44
2024/01/14 05:28:11;;;;;;;207.73;89.43;;;11.90;63.70;;;;;;5101684;28;20088;-50
2024/01/14 05:30:37;;;;;;;209.57;91.82;;;11.90;63.70;;;;;;5102920;28;20076;-46
2024/01/14 05:33:06;;;;;;;210.35;92.78;;;11.90;63.90;;;;;;5102516;28;20112;-49
2024/01/14 05:35:34;;;;;;;208.35;87.70;;;11.80;63.90;;;;;;5102504;28;20076;-47
2024/01/14 05:38:03;;;;;;;228.90;92.10;;;11.90;64.10;;;;;;5086661;28;20081;-48
2024/01/14 05:40:29;;;;;;;207.60;90.38;;;11.90;64.30;;;;;;5101573;28;20178;-50
2024/01/14 05:42:56;;;;;;;177.40;80.60;;;11.90;64.90;;;;;;5104096;28;20577;-48
2024/01/14 05:45:23;;;;;;;208.48;83.18;;;11.90;64.40;;;;;;5102515;28;20117;-45
2024/01/14 05:47:51;;;;;;;221.40;82.88;;;11.90;64.30;;;;;;5103436;28;20072;-47
2024/01/14 05:50:18;;;;;;;220.02;82.20;;;11.90;64.10;;;;;;5101969;28;20076;-55
2024/01/14 05:52:45;;;;;;;206.25;81.50;;;11.90;64.10;;;;;;5102937;28;20180;-46
2024/01/14 05:55:12;;;;;;;241.73;86.07;;;11.80;64.80;;;;;;5087006;28;20079;-48
2024/01/14 05:57:39;;;;;;;204.25;80.28;;;11.80;64.60;;;;;;5103927;28;20139;-48
2024/01/14 06:00:06;;;;;;;219.48;83.10;;;11.70;64.60;;;;;;5103376;28;20542;-53
2024/01/14 06:02:35;;;;;;;224.77;84.43;;;11.70;64.40;;;;;;5103195;28;20087;-47
2024/01/14 06:05:01;;;;;;;225.30;82.38;;;11.80;64.80;;;;;;5101488;28;20437;-50
2024/01/14 06:07:29;;;;;;;214.23;80.25;;;11.70;64.90;;;;;;5103494;28;20163;-49
2024/01/14 06:09:56;;;;;;;250.43;84.47;;;11.70;64.70;;;;;;5101073;28;20078;-57
2024/01/14 06:12:22;;;;;;;192.20;74.78;;;11.70;64.90;;;;;;5102772;28;20104;-48
2024/01/14 06:14:49;;;;;;;195.70;75.15;;;11.70;65.70;;;;;;5102489;28;20076;-49
2024/01/14 06:17:15;;;;;;;210.73;77.07;;;11.60;65.30;;;;;;5104023;28;20096;-48
2024/01/14 06:19:43;;;;;;;180.85;69.20;;;11.60;64.80;;;;;;5102463;28;20084;-46
2024/01/14 06:22:12;;;;;;;204.40;71.70;;;11.60;64.80;;;;;;5084966;28;20079;-53
2024/01/14 06:24:39;;;;;;;195.45;71.53;;;11.60;64.90;;;;;;5101931;28;20534;-54
2024/01/14 06:27:06;;;;;;;178.30;69.50;;;11.60;65.90;;;;;;5103712;28;20077;-45
2024/01/14 06:29:33;;;;;;;175.25;69.90;;;11.60;66.30;;;;;;5101100;28;20069;-46
2024/01/14 06:32:00;;;;;;;196.95;70.85;;;11.60;66.10;;;;;;5103169;28;20111;-47
2024/01/14 06:34:27;;;;;;;204.50;65.40;;;11.60;65.90;;;;;;5103084;28;20087;-50
2024/01/14 06:36:54;;;;;;;210.70;65.43;;;11.60;65.70;;;;;;5098900;28;20073;-48
2024/01/14 06:39:20;;;;;;;202.27;65.72;;;11.60;65.50;;;;;;5104508;28;20163;-45
2024/01/14 06:41:47;;;;;;;187.75;64.70;;;11.60;65.50;;;;;;5104936;28;20533;-46
2024/01/14 06:44:13;;;;;;;191.70;65.38;;;11.60;66.00;;;;;;5102146;28;20082;-50
2024/01/14 06:46:44;;;;;;;175.38;64.80;;;11.50;67.10;;;;;;5100825;28;20084;-51
2024/01/14 06:49:11;;;;;;;192.13;65.03;;;11.40;67.60;;;;;;5104136;28;20084;-51
2024/01/14 06:51:44;;;;;;;185.95;66.05;;;11.40;66.80;;;;;;5101323;28;20120;-45
2024/01/14 06:54:11;;;;;;;170.35;66.60;;;11.40;66.80;;;;;;5100441;28;20080;-49
2024/01/14 06:56:45;;;;;;;184.60;68.00;;;11.40;67.70;;;;;;5105192;28;20155;-45
2024/01/14 06:59:22;;;;;;;194.60;72.72;;;11.30;67.40;;;;;;5101611;28;20076;-46
2024/01/14 07:01:49;;;;;;;197.13;71.07;;;11.30;67.90;;;;;;5103041;28;20076;-49
2024/01/14 07:04:15;;;;;;;188.63;70.40;;;11.30;67.50;;;;;;5099952;28;20179;-50
2024/01/14 07:06:44;;;;;;;179.57;66.32;;;11.30;67.40;;;;;;5102635;28;20560;-48
2024/01/14 07:09:12;;;;;;;190.10;63.72;;;11.30;67.10;;;;;;5100015;28;20449;-45
2024/01/14 07:11:39;;;;;;;170.40;62.25;;;11.30;66.70;;;;;;5101664;28;20107;-50
2024/01/14 07:14:06;;;;;;;172.90;64.30;;;11.20;67.30;;;;;;5102442;28;20072;-45
2024/01/14 07:16:32;;;;;;;177.13;63.72;;;11.20;66.90;;;;;;5103437;28;20080;-49
2024/01/14 07:18:59;;;;;;;172.15;62.95;;;11.20;66.80;;;;;;5100325;28;20129;-48
2024/01/14 07:21:27;;;;;;;146.77;56.28;;;11.20;66.60;;;;;;5103715;28;20100;-47
2024/01/14 07:23:53;;;;;;;181.57;61.08;;;11.10;68.40;;;;;;5101712;28;20182;-48
2024/01/14 07:26:22;;;;;;;182.43;60.83;;;11.10;67.60;;;;;;5103349;28;20085;-46
2024/01/14 07:28:51;;;;;;;165.63;61.80;;;11.10;67.50;;;;;;5083657;28;20080;-50
2024/01/14 07:31:20;;;;;;;171.63;61.28;;;11.10;67.80;;;;;;5102930;28;20096;-48
2024/01/14 07:33:53;;;;;;;171.70;59.05;;;11.00;68.20;;;;;;5104064;28;20080;-48
2024/01/14 07:36:20;;;;;;;158.52;58.85;;;11.00;68.60;;;;;;5086355;28;20137;-48
2024/01/14 07:38:47;;;;;;;143.73;55.83;;;10.90;68.20;;;;;;5105712;28;20076;-46
2024/01/14 07:41:15;;;;;;;158.05;56.25;;;10.80;68.80;;;;;;5104809;28;20204;-47
2024/01/14 07:43:43;;;;;;;159.27;56.70;;;10.70;68.50;;;;;;5089821;28;20095;-48
2024/01/14 07:46:12;;;;;;;155.93;56.83;;;10.80;69.30;;;;;;5103364;28;20188;-44
2024/01/14 07:48:38;;;;;;;182.05;57.97;;;10.80;69.30;;;;;;5089338;28;20084;-50
2024/01/14 07:51:06;;;;;;;167.07;59.92;;;10.70;69.20;;;;;;5104707;28;20177;-51
2024/01/14 07:53:37;;;;;;;189.00;61.92;;;10.50;70.10;;;;;;5107728;28;20088;-48
2024/01/14 07:56:05;;;;;;;152.00;56.35;;;10.60;70.80;;;;;;5105444;28;20103;-52
2024/01/14 07:58:33;;;;;;;168.45;58.30;;;10.50;69.80;;;;;;5106357;28;20084;-50
2024/01/14 08:01:00;;;;;;;168.18;61.42;;;10.50;69.80;;;;;;5101247;28;20080;-43
2024/01/14 08:03:27;;;;;;;176.90;64.25;;;10.50;70.10;;;;;;5106683;28;20072;-48
2024/01/14 08:05:54;;;;;;;172.27;62.05;;;10.50;70.70;;;;;;5106417;28;20534;-46
2024/01/14 08:08:21;;;;;;;193.43;63.88;;;10.50;70.50;;;;;;5105595;28;20068;-52
2024/01/14 08:10:48;;;;;;;177.52;63.92;;;10.50;70.40;;;;;;5103146;28;20129;-50
2024/01/14 08:13:15;;;;;;;178.02;63.17;;;10.50;70.90;;;;;;5106051;28;20099;-46
2024/01/14 08:15:42;;;;;;;152.05;61.83;;;10.40;70.50;;;;;;5104414;28;20153;-46
2024/01/14 08:18:09;;;;;;;190.93;64.50;;;10.30;70.80;;;;;;5106641;28;20167;-53
2024/01/14 08:20:38;;;;;;;152.52;58.38;;;10.30;71.20;;;;;;5105216;28;20088;-44
2024/01/14 08:23:05;;;;;;;183.50;60.50;;;10.30;71.40;;;;;;5105390;28;20076;-56
2024/01/14 08:25:32;;;;;;;192.90;62.78;;;10.50;71.90;;;;;;5104545;28;20080;-49
2024/01/14 08:27:59;;;;;;;168.52;61.05;;;11.00;69.60;;;;;;5107112;28;20084;-49
2024/01/14 08:30:25;;;;;;;150.15;56.47;;;11.20;69.30;;;;;;5100112;28;20076;-51
2024/01/14 08:32:52;;;;;;;183.95;58.58;;;11.20;68.60;;;;;;5106086;28;20107;-49
2024/01/14 08:35:18;;;;;;;157.02;58.88;;;11.10;68.80;;;;;;5103640;28;20080;-44
2024/01/14 08:37:48;;;;;;;147.60;55.40;;;11.30;68.10;;;;;;5104887;28;20424;-46
2024/01/14 08:40:15;;;;;;;168.77;60.05;;;11.30;68.70;;;;;;5105634;28;20068;-45
2024/01/14 08:42:45;;;;;;;161.85;60.47;;;11.70;68.20;;;;;;5105676;28;20076;-45
2024/01/14 08:45:16;;;;;;;155.98;58.72;;;11.80;67.00;;;;;;5103068;28;20121;-49
2024/01/14 08:47:43;;;;;;;164.07;58.78;;;11.70;67.50;;;;;;5100518;28;20092;-44
2024/01/14 08:50:10;;;;;;;169.45;59.00;;;11.80;67.40;;;;;;5105921;28;20076;-53
2024/01/14 08:52:38;;;;;;;192.15;57.60;;;11.90;66.70;;;;;;5102570;28;20214;-46
2024/01/14 08:55:11;;;;;;;141.57;53.42;;;11.80;67.60;;;;;;5104092;28;20083;-45
2024/01/14 08:57:39;;;;;;;148.30;61.35;;;12.10;66.20;;;;;;5104874;28;20086;-46
2024/01/14 09:00:09;;;;;;;156.18;62.65;;;11.70;67.00;;;;;;5104717;28;20091;-45
2024/01/14 09:02:36;;;;;;;179.13;67.82;;;11.20;68.80;;;;;;5103656;28;20079;-45
2024/01/14 09:05:02;;;;;;;170.75;70.57;;;11.20;69.10;;;;;;5104450;28;20133;-45
2024/01/14 09:07:30;;;;;;;204.85;77.78;;;11.10;69.60;;;;;;5102800;28;20110;-46
2024/01/14 09:09:59;;;;;;;191.70;77.90;;;11.00;69.90;;;;;;5104901;28;20087;-46
2024/01/14 09:12:25;;;;;;;157.63;66.10;;;10.90;70.50;;;;;;5103467;28;20123;-44
2024/01/14 09:14:52;;;;;;;156.45;66.20;;;11.00;71.10;;;;;;5101695;28;20076;-48
2024/01/14 09:17:20;;;;;;;155.35;56.67;;;11.00;70.10;;;;;;5102831;28;20076;-44
2024/01/14 09:19:49;;;;;;;155.98;59.53;;;10.90;70.70;;;;;;5103492;28;20168;-44
2024/01/14 09:22:17;;;;;;;143.27;58.90;;;10.70;71.00;;;;;;5105065;28;20103;-47
2024/01/14 09:24:45;;;;;;;146.35;57.83;;;10.80;72.10;;;;;;5104958;28;20083;-49
2024/01/14 09:27:15;;;;;;;129.05;56.03;;;10.90;71.50;;;;;;5105138;28;20083;-46
2024/01/14 09:29:42;;;;;;;143.75;59.45;;;10.90;71.30;;;;;;5102400;28;20084;-42
2024/01/14 09:32:09;;;;;;;160.35;60.38;;;10.80;71.10;;;;;;5106112;28;20655;-43
2024/01/14 09:34:38;;;;;;;155.02;59.33;;;10.70;71.70;;;;;;5104221;28;20171;-45
2024/01/14 09:37:05;;;;;;;163.35;57.63;;;10.40;72.00;;;;;;5105477;28;20177;-46
2024/01/14 09:39:32;;;;;;;138.40;53.50;;;10.30;73.10;;;;;;5104507;28;20080;-46
2024/01/14 09:42:28;;;;;;;149.75;58.88;;;10.30;73.50;;;;;;5104110;28;20080;-47
2024/01/14 09:45:00;;;;;;;170.63;59.88;;;10.40;74.00;;;;;;5103428;28;20192;-45
2024/01/14 09:47:27;;;;;;;178.63;59.70;;;10.60;72.10;;;;;;5105501;28;20088;-44
2024/01/14 09:49:57;;;;;;;158.75;59.38;;;10.40;72.70;;;;;;5103048;28;20072;-44
2024/01/14 09:52:24;;;;;;;205.82;63.95;;;10.40;73.10;;;;;;5104765;28;20116;-46
2024/01/14 09:54:52;;;;;;;154.35;61.00;;;10.40;73.20;;;;;;5104204;28;20168;-47
2024/01/14 09:57:21;;;;;;;172.25;60.42;;;10.40;72.70;;;;;;5103897;27;20155;-50
2024/01/14 09:59:52;;;;;;;169.63;59.60;;;10.40;73.40;;;;;;5101822;28;20430;-49
2024/01/14 10:02:19;;;;;;;176.15;58.30;;;10.50;72.70;;;;;;5103254;28;20067;-54
2024/01/14 10:04:47;;;;;;;164.00;56.38;;;10.30;73.60;;;;;;5101435;28;20163;-50
2024/01/14 10:07:13;;;;;;;151.82;59.00;;;10.20;73.80;;;;;;5104234;28;20068;-47
2024/01/14 10:09:41;;;;;;;151.60;58.38;;;10.10;74.50;;;;;;5102273;28;20098;-50
2024/01/14 10:12:09;;;;;;;177.38;61.92;;;10.10;74.40;;;;;;5104897;28;20100;-50
2024/01/14 10:14:37;;;;;;;157.85;57.58;;;9.90;75.40;;;;;;5104814;28;20084;-48
2024/01/14 10:17:03;;;;;;;130.98;56.10;;;9.60;75.80;;;;;;5105541;28;20217;-50
2024/01/14 10:19:31;;;;;;;152.45;58.35;;;9.50;76.40;;;;;;5104404;28;20117;-44
2024/01/14 10:21:58;;;;;;;144.57;55.72;;;9.50;77.40;;;;;;5101782;28;20069;-48
2024/01/14 10:24:25;;;;;;;132.07;55.53;;;9.60;77.60;;;;;;5080409;28;20112;-43
2024/01/14 10:26:53;;;;;;;138.50;56.92;;;9.60;77.00;;;;;;5101836;28;20079;-44
2024/01/14 10:29:20;;;;;;;141.43;59.90;;;9.70;77.60;;;;;;5099357;28;20084;-50
2024/01/14 10:31:48;;;;;;;134.10;56.58;;;9.60;76.80;;;;;;5102473;28;20195;-45
2024/01/14 10:34:18;;;;;;;149.15;59.80;;;9.70;76.60;;;;;;5103968;28;20087;-46
2024/01/14 10:36:47;;;;;;;150.02;58.65;;;9.70;76.60;;;;;;5101703;28;20072;-45
2024/01/14 10:39:14;;;;;;;168.40;61.45;;;9.40;76.30;;;;;;5102319;28;20175;-44
2024/01/14 10:41:41;;;;;;;150.05;60.83;;;9.20;77.10;;;;;;5105061;28;20083;-52
2024/01/14 10:44:09;;;;;;;145.40;60.00;;;9.00;77.90;;;;;;5103458;28;20084;-44
2024/01/14 10:46:38;;;;;;;159.82;60.88;;;9.00;78.70;;;;;;5086780;28;20080;-47
2024/01/14 10:49:11;;;;;;;161.50;61.67;;;9.00;79.00;;;;;;5105109;28;20213;-48
2024/01/14 10:51:42;;;;;;;141.23;59.83;;;9.00;79.10;;;;;;5081229;28;20120;-45
2024/01/14 10:54:23;;;;;;;174.65;65.57;;;9.00;78.90;;;;;;5100604;28;20213;-44
2024/01/14 10:57:01;;;;;;;163.07;63.97;;;9.00;78.40;;;;;;5103930;28;20163;-50
2024/01/14 10:59:28;;;;;;;160.25;63.13;;;9.00;78.30;;;;;;5103430;28;20087;-52
2024/01/14 11:01:57;;;;;;;154.93;62.63;;;8.90;78.40;;;;;;5104397;28;20518;-46
2024/01/14 11:04:26;;;;;;;165.23;65.43;;;9.00;78.50;;;;;;5102712;28;20072;-45
2024/01/14 11:06:55;;;;;;;167.15;65.75;;;8.90;78.10;;;;;;5104265;28;20096;-44
2024/01/14 11:09:22;;;;;;;161.05;63.35;;;8.80;78.70;;;;;;5104881;28;20090;-50
2024/01/14 11:12:01;;;;;;;152.77;63.33;;;8.80;79.10;;;;;;5105474;28;20203;-47
2024/01/14 11:14:41;;;;;;;152.52;64.93;;;8.90;79.20;;;;;;5106589;28;20103;-49
2024/01/14 11:17:39;;;;;;;182.15;66.72;;;8.90;79.20;;;;;;5108566;28;20080;-46
2024/01/14 11:20:07;;;;;;;163.90;70.90;;;8.90;78.60;;;;;;5106038;28;20079;-46
2024/01/14 11:22:35;;;;;;;182.35;71.13;;;9.10;77.90;;;;;;5105912;28;20076;-48
2024/01/14 11:25:03;;;;;;;179.25;72.72;;;9.10;77.50;;;;;;5106634;28;20080;-47
2024/01/14 11:27:30;;;;;;;174.70;74.88;;;9.10;77.00;;;;;;5105637;28;20174;-44
2024/01/14 11:29:58;;;;;;;172.02;75.00;;;9.10;76.40;;;;;;5110216;28;20567;-47
2024/01/14 11:32:26;;;;;;;167.48;69.85;;;9.10;77.50;;;;;;5107108;28;20585;-46
2024/01/14 11:34:54;;;;;;;175.38;73.68;;;9.10;77.30;;;;;;5107707;28;20490;-46
2024/01/14 11:37:33;;;;;;;188.65;72.50;;;9.20;77.20;;;;;;5107408;28;20580;-46
2024/01/14 11:40:16;;;;;;;158.07;71.78;;;9.10;77.70;;;;;;5105370;28;20203;-48
2024/01/14 11:42:52;;;;;;;178.43;71.15;;;9.10;78.30;;;;;;5106240;28;20179;-51
2024/01/14 11:45:25;;;;;;;174.75;69.90;;;9.10;77.90;;;;;;5090286;28;20079;-53
2024/01/14 11:47:55;;;;;;;177.15;70.10;;;9.00;78.10;;;;;;5105952;28;20080;-45
2024/01/14 11:50:27;;;;;;;172.98;71.68;;;9.00;78.10;;;;;;5108513;28;20133;-46
2024/01/14 11:52:58;;;;;;;164.15;69.95;;;8.90;79.30;;;;;;5105316;28;20165;-47
2024/01/14 11:55:25;;;;;;;196.45;72.82;;;8.80;79.40;;;;;;5104482;28;20084;-44
2024/01/14 11:57:53;;;;;;;153.82;61.85;;;8.60;80.00;;;;;;5108338;28;20125;-44
2024/01/14 12:00:24;;;;;;;149.30;63.53;;;8.70;79.70;;;;;;5105321;28;20104;-46
2024/01/14 12:03:06;;;;;;;147.68;60.05;;;8.60;80.10;;;;;;5104888;28;20083;-47
2024/01/14 12:05:34;;;;;;;154.05;58.83;;;8.60;80.20;;;;;;5105158;28;20076;-48
2024/01/14 12:08:03;;;;;;;116.15;54.60;;;8.60;80.50;;;;;;5105280;28;20079;-44
2024/01/14 12:10:31;;;;;;;122.93;58.22;;;8.70;79.80;;;;;;5104308;28;20080;-44
2024/01/14 12:13:06;;;;;;;119.60;50.53;;;8.60;79.80;;;;;;5105665;28;20103;-49
2024/01/14 12:15:33;;;;;;;120.65;49.28;;;8.70;79.40;;;;;;5106513;28;20079;-45
2024/01/14 12:18:01;;;;;;;89.60;41.22;;;8.60;80.00;;;;;;5104859;28;20080;-46
2024/01/14 12:20:29;;;;;;;81.82;37.88;;;8.60;79.40;;;;;;5106249;28;20153;-50
2024/01/14 12:22:57;;;;;;;72.40;35.47;;;8.60;79.20;;;;;;5101278;28;20529;-50
2024/01/14 12:25:23;;;;;;;100.20;35.35;;;8.50;80.00;;;;;;5105145;28;20164;-48
2024/01/14 12:27:50;;;;;;;84.20;35.10;;;8.70;79.30;;;;;;5105741;28;20426;-50